createdAt,value
2023-09-25T05:00:55.034Z,100864.78
2023-09-25T05:03:21.984Z,100870.00
2023-09-25T05:05:49.620Z,100865.50
2023-09-25T05:08:16.310Z,100862.88
2023-09-25T05:10:43.221Z,100862.00
2023-09-25T05:13:10.206Z,100869.91
2023-09-25T05:15:37.834Z,100869.06
2023-09-25T05:18:04.907Z,100870.88
2023-09-25T05:20:33.590Z,100861.94
2023-09-25T05:23:00.291Z,100870.09
2023-09-25T05:25:28.266Z,100870.19
2023-09-25T05:27:57.308Z,100870.09
2023-09-25T05:30:25.642Z,100871.72
2023-09-25T05:32:53.401Z,100875.34
2023-09-25T05:35:21.219Z,100872.69
2023-09-25T05:37:50.537Z,100873.41
2023-09-25T05:40:18.965Z,100866.25
2023-09-25T05:42:47.496Z,100866.25
2023-09-25T05:45:16.334Z,100864.25
2023-09-25T05:47:44.946Z,100866.84
2023-09-25T05:50:12.628Z,100865.84
2023-09-25T05:52:40.947Z,100876.38
2023-09-25T05:55:09.346Z,100869.84
2023-09-25T05:57:36.397Z,100875.94
2023-09-25T06:00:11.848Z,100873.94
2023-09-25T06:02:42.963Z,100875.53
2023-09-25T06:05:14.275Z,100874.53
2023-09-25T06:07:41.567Z,100869.00
2023-09-25T06:10:09.777Z,100866.13
2023-09-25T06:12:37.146Z,100872.25
2023-09-25T06:15:11.014Z,100879.28
2023-09-25T06:17:39.246Z,100879.22
2023-09-25T06:20:14.798Z,100879.16
2023-09-25T06:22:41.755Z,100877.16
2023-09-25T06:25:19.660Z,100877.78
2023-09-25T06:27:46.677Z,100877.50
2023-09-25T06:30:15.472Z,100873.69
2023-09-25T06:32:42.227Z,100876.91
2023-09-25T06:35:10.193Z,100881.75
2023-09-25T06:37:39.729Z,100881.00
2023-09-25T06:40:11.672Z,100878.03
2023-09-25T06:42:40.001Z,100879.72
2023-09-25T06:45:07.692Z,100885.06
2023-09-25T06:47:35.156Z,100885.06
2023-09-25T06:50:02.625Z,100880.72
2023-09-25T06:52:29.347Z,100880.53
2023-09-25T06:54:57.637Z,100874.34
2023-09-25T06:57:24.391Z,100868.41
2023-09-25T06:59:51.430Z,100869.59
2023-09-25T07:02:18.550Z,100881.19
2023-09-25T07:04:46.024Z,100881.78
2023-09-25T07:07:13.608Z,100880.22
2023-09-25T07:09:40.357Z,100877.50
2023-09-25T07:12:08.076Z,100890.78
2023-09-25T07:14:35.366Z,100887.47
2023-09-25T07:17:02.994Z,100890.13
2023-09-25T07:19:30.004Z,100891.88
2023-09-25T07:21:57.620Z,100882.63
2023-09-25T07:24:24.874Z,100889.56
2023-09-25T07:26:53.228Z,100885.75
2023-09-25T07:29:38.632Z,100893.91
2023-09-25T07:32:06.614Z,100896.59
2023-09-25T07:34:36.747Z,100897.22
2023-09-25T07:37:06.050Z,100900.59
2023-09-25T07:39:41.114Z,100894.22
2023-09-25T07:42:08.856Z,100890.34
2023-09-25T07:44:36.167Z,100884.38
2023-09-25T07:47:08.573Z,100889.97
2023-09-25T07:49:45.761Z,100878.97
2023-09-25T07:52:18.286Z,100884.34
2023-09-25T07:54:46.484Z,100886.16
2023-09-25T07:57:15.213Z,100883.22
2023-09-25T07:59:44.737Z,100885.78
2023-09-25T08:02:19.750Z,100896.09
2023-09-25T08:04:47.540Z,100894.22
2023-09-25T08:07:15.183Z,100885.06
2023-09-25T08:09:42.595Z,100892.03
2023-09-25T08:12:10.390Z,100898.78
2023-09-25T08:14:37.329Z,100894.13
2023-09-25T08:17:05.247Z,100897.41
2023-09-25T08:19:32.297Z,100897.59
2023-09-25T08:22:00.118Z,100889.13
2023-09-25T08:24:26.995Z,100890.16
2023-09-25T08:26:54.490Z,100893.50
2023-09-25T08:29:21.318Z,100891.66
2023-09-25T08:31:50.064Z,100892.47
2023-09-25T08:34:16.742Z,100889.84
2023-09-25T08:36:44.060Z,100888.47
2023-09-25T08:39:15.022Z,100889.13
2023-09-25T08:41:42.557Z,100891.06
2023-09-25T08:44:11.390Z,100884.47
2023-09-25T08:46:38.880Z,100882.13
2023-09-25T08:49:06.517Z,100881.75
2023-09-25T08:51:36.973Z,100879.63
2023-09-25T08:54:04.462Z,100877.41
2023-09-25T08:56:33.128Z,100874.59
2023-09-25T08:59:04.475Z,100869.97
2023-09-25T09:01:32.133Z,100873.13
2023-09-25T09:03:59.795Z,100883.44
2023-09-25T09:06:27.245Z,100885.56
2023-09-25T09:08:53.927Z,100887.84
2023-09-25T09:11:22.504Z,100884.94
2023-09-25T09:13:50.181Z,100884.06
2023-09-25T09:16:19.350Z,100882.00
2023-09-25T09:18:47.851Z,100871.84
2023-09-25T09:21:27.397Z,100873.69
2023-09-25T09:23:56.810Z,100871.44
2023-09-25T09:26:25.064Z,100872.03
2023-09-25T09:28:55.002Z,100868.59
2023-09-25T09:31:22.791Z,100875.75
2023-09-25T09:33:49.937Z,100871.25
2023-09-25T09:36:17.593Z,100866.13
2023-09-25T09:38:47.309Z,100867.34
2023-09-25T09:41:16.643Z,100867.78
2023-09-25T09:43:43.846Z,100862.81
2023-09-25T09:46:13.155Z,100860.38
2023-09-25T09:48:42.779Z,100843.88
2023-09-25T09:51:12.798Z,100842.59
2023-09-25T09:53:40.429Z,100848.97
2023-09-25T09:56:07.779Z,100849.97
2023-09-25T09:58:35.786Z,100844.13
2023-09-25T10:01:03.344Z,100841.38
2023-09-25T10:03:30.615Z,100842.75
2023-09-25T10:05:58.161Z,100846.03
2023-09-25T10:08:25.416Z,100843.31
2023-09-25T10:10:55.707Z,100834.56
2023-09-25T10:13:23.655Z,100837.06
2023-09-25T10:16:02.806Z,100834.09
2023-09-25T10:18:31.255Z,100831.97
2023-09-25T10:21:16.046Z,100828.88
2023-09-25T10:23:53.065Z,100830.16
2023-09-25T10:26:24.150Z,100829.13
2023-09-25T10:28:59.865Z,100836.03
2023-09-25T10:31:30.724Z,100832.66
2023-09-25T10:34:01.144Z,100824.41
2023-09-25T10:36:46.307Z,100824.19
2023-09-25T10:39:16.152Z,100832.38
2023-09-25T10:41:44.083Z,100824.84
2023-09-25T10:44:13.570Z,100826.19
2023-09-25T10:46:41.844Z,100825.06
2023-09-25T10:49:12.059Z,100824.94
2023-09-25T10:51:39.623Z,100823.09
2023-09-25T10:54:06.482Z,100814.94
2023-09-25T10:56:34.091Z,100815.91
2023-09-25T10:59:02.448Z,100811.47
2023-09-25T11:01:30.951Z,100809.53
2023-09-25T11:04:02.702Z,100804.09
2023-09-25T11:06:30.363Z,100807.75
2023-09-25T11:09:08.474Z,100806.34
2023-09-25T11:11:35.425Z,100799.97
2023-09-25T11:14:03.045Z,100799.56
2023-09-25T11:16:30.238Z,100794.56
2023-09-25T11:19:15.840Z,100785.28
2023-09-25T11:21:52.172Z,100781.84
2023-09-25T11:24:20.252Z,100778.16
2023-09-25T11:26:47.635Z,100775.88
2023-09-25T11:29:14.947Z,100771.44
2023-09-25T11:32:01.191Z,100781.19
2023-09-25T11:34:29.960Z,100776.22
2023-09-25T11:36:59.806Z,100781.84
2023-09-25T11:39:27.337Z,100774.28
2023-09-25T11:41:55.170Z,100773.16
2023-09-25T11:44:22.150Z,100783.78
2023-09-25T11:46:48.807Z,100775.34
2023-09-25T11:49:16.136Z,100777.66
2023-09-25T11:51:42.801Z,100769.31
2023-09-25T11:54:10.445Z,100774.72
2023-09-25T11:56:37.357Z,100774.50
2023-09-25T11:59:05.630Z,100766.09
2023-09-25T12:01:32.284Z,100769.22
2023-09-25T12:03:59.769Z,100775.38
2023-09-25T12:06:27.424Z,100766.09
2023-09-25T12:08:55.672Z,100762.63
2023-09-25T12:11:22.937Z,100761.78
2023-09-25T12:13:51.838Z,100758.00
2023-09-25T12:16:19.787Z,100755.28
2023-09-25T12:18:47.271Z,100756.56
2023-09-25T12:21:15.532Z,100755.38
2023-09-25T12:23:42.651Z,100750.19
2023-09-25T12:26:10.242Z,100760.69
2023-09-25T12:28:37.007Z,100765.97
2023-09-25T12:31:04.516Z,100753.66
2023-09-25T12:33:31.385Z,100758.53
2023-09-25T12:35:59.012Z,100762.75
2023-09-25T12:38:26.140Z,100757.88
2023-09-25T12:40:54.600Z,100767.09
2023-09-25T12:43:23.762Z,100765.47
2023-09-25T12:45:51.225Z,100765.47
2023-09-25T12:48:18.918Z,100772.59
2023-09-25T12:50:46.321Z,100773.69
2023-09-25T12:53:13.452Z,100778.66
2023-09-25T12:55:40.761Z,100777.88
2023-09-25T12:58:07.628Z,100774.34
2023-09-25T13:00:34.994Z,100773.25
2023-09-25T13:03:02.122Z,100763.28
2023-09-25T13:05:30.543Z,100773.03
2023-09-25T13:07:57.207Z,100773.91
2023-09-25T13:10:24.507Z,100769.78
2023-09-25T13:12:51.327Z,100764.22
2023-09-25T13:15:22.536Z,100751.13
2023-09-25T13:17:51.209Z,100754.59
2023-09-25T13:20:18.727Z,100754.31
2023-09-25T13:22:45.973Z,100753.66
2023-09-25T13:25:13.297Z,100747.06
2023-09-25T13:27:40.236Z,100744.34
2023-09-25T13:30:13.043Z,100747.06
2023-09-25T13:32:40.136Z,100754.63
2023-09-25T13:35:10.674Z,100750.75
2023-09-25T13:37:39.408Z,100748.56
2023-09-25T13:40:18.525Z,100751.59
2023-09-25T13:42:46.189Z,100754.19
2023-09-25T13:45:15.445Z,100751.47
2023-09-25T13:47:46.716Z,100759.06
2023-09-25T13:50:14.506Z,100754.88
2023-09-25T13:52:42.934Z,100749.69
2023-09-25T13:55:11.813Z,100751.59
2023-09-25T13:57:40.253Z,100749.44
2023-09-25T14:00:09.486Z,100750.41
2023-09-25T14:02:42.007Z,100750.75
2023-09-25T14:05:09.791Z,100739.03
2023-09-25T14:07:37.193Z,100750.22
2023-09-25T14:10:04.032Z,100738.63
2023-09-25T14:12:31.351Z,100747.69
2023-09-25T14:14:58.270Z,100743.59
2023-09-25T14:17:25.635Z,100742.50
2023-09-25T14:19:52.504Z,100743.59
2023-09-25T14:22:21.362Z,100743.81
2023-09-25T14:24:48.127Z,100743.28
2023-09-25T14:27:15.467Z,100741.56
2023-09-25T14:29:42.167Z,100738.84
2023-09-25T14:32:09.479Z,100749.22
2023-09-25T14:34:36.101Z,100744.56
2023-09-25T14:37:03.421Z,100745.53
2023-09-25T14:39:31.784Z,100750.84
2023-09-25T14:42:00.237Z,100738.94
2023-09-25T14:44:27.098Z,100752.69
2023-09-25T14:46:55.208Z,100751.16
2023-09-25T14:49:22.090Z,100747.28
2023-09-25T14:51:49.416Z,100750.84
2023-09-25T14:54:16.172Z,100754.41
2023-09-25T14:56:43.487Z,100758.09
2023-09-25T14:59:10.187Z,100754.63
2023-09-25T15:01:37.146Z,100742.09
2023-09-25T15:04:04.985Z,100750.22
2023-09-25T15:06:31.912Z,100752.38
2023-09-25T15:08:59.300Z,100761.78
2023-09-25T15:11:25.928Z,100764.56
2023-09-25T15:13:53.254Z,100761.56
2023-09-25T15:16:20.446Z,100750.97
2023-09-25T15:18:47.609Z,100752.03
2023-09-25T15:21:14.398Z,100749.44
2023-09-25T15:23:42.176Z,100749.66
2023-09-25T15:26:08.882Z,100750.09
2023-09-25T15:28:36.810Z,100747.25
2023-09-25T15:31:03.573Z,100748.13
2023-09-25T15:33:30.947Z,100747.78
2023-09-25T15:35:57.586Z,100752.66
2023-09-25T15:38:24.882Z,100742.03
2023-09-25T15:40:51.574Z,100739.97
2023-09-25T15:43:19.989Z,100736.59
2023-09-25T15:45:46.872Z,100727.94
2023-09-25T15:48:14.321Z,100728.06
2023-09-25T15:50:41.283Z,100727.63
2023-09-25T15:53:08.569Z,100733.47
2023-09-25T15:55:35.223Z,100737.53
2023-09-25T15:58:02.179Z,100740.75
2023-09-25T16:00:30.805Z,100740.38
2023-09-25T16:02:57.575Z,100739.81
2023-09-25T16:05:25.143Z,100740.75
2023-09-25T16:07:51.767Z,100739.47
2023-09-25T16:10:19.152Z,100746.00
2023-09-25T16:12:45.936Z,100755.28
2023-09-25T16:15:12.973Z,100734.28
2023-09-25T16:17:39.651Z,100740.25
2023-09-25T16:20:07.420Z,100736.00
2023-09-25T16:22:34.110Z,100743.03
2023-09-25T16:25:01.441Z,100744.09
2023-09-25T16:27:28.134Z,100739.56
2023-09-25T16:29:55.395Z,100745.81
2023-09-25T16:32:21.995Z,100749.69
2023-09-25T16:34:49.326Z,100752.00
2023-09-25T16:37:16.036Z,100747.88
2023-09-25T16:39:43.414Z,100745.47
2023-09-25T16:42:10.068Z,100743.13
2023-09-25T16:44:36.900Z,100744.31
2023-09-25T16:47:03.585Z,100744.59
2023-09-25T16:49:31.005Z,100742.28
2023-09-25T16:51:57.731Z,100738.31
2023-09-25T16:54:24.706Z,100741.50
2023-09-25T16:56:51.371Z,100741.00
2023-09-25T16:59:18.092Z,100745.72
2023-09-25T17:01:46.866Z,100743.28
2023-09-25T17:04:13.704Z,100750.78
2023-09-25T17:06:40.720Z,100740.47
2023-09-25T17:09:07.414Z,100741.88
2023-09-25T17:11:34.865Z,100742.50
2023-09-25T17:14:01.925Z,100747.56
2023-09-25T17:16:32.377Z,100749.84
2023-09-25T17:18:59.742Z,100759.41
2023-09-25T17:21:27.731Z,100768.97
2023-09-25T17:23:54.450Z,100762.63
2023-09-25T17:26:22.063Z,100765.00
2023-09-25T17:28:52.961Z,100766.59
2023-09-25T17:31:22.349Z,100765.38
2023-09-25T17:33:50.918Z,100762.22
2023-09-25T17:36:18.987Z,100763.69
2023-09-25T17:38:45.947Z,100756.06
2023-09-25T17:41:13.437Z,100768.16
2023-09-25T17:43:40.264Z,100766.91
2023-09-25T17:46:10.251Z,100765.66
2023-09-25T17:48:40.643Z,100769.63
2023-09-25T17:51:08.141Z,100766.31
2023-09-25T17:53:34.947Z,100764.91
2023-09-25T17:56:02.430Z,100764.19
2023-09-25T17:58:31.416Z,100772.94
2023-09-25T18:01:02.555Z,100767.19
2023-09-25T18:03:30.271Z,100777.34
2023-09-25T18:05:57.523Z,100774.75
2023-09-25T18:08:24.730Z,100776.47
2023-09-25T18:10:51.763Z,100769.44
2023-09-25T18:13:21.323Z,100772.44
2023-09-25T18:15:50.862Z,100770.00
2023-09-25T18:18:17.933Z,100769.56
2023-09-25T18:20:44.826Z,100777.84
2023-09-25T18:23:12.434Z,100774.59
2023-09-25T18:25:42.012Z,100773.31
2023-09-25T18:28:09.632Z,100773.53
2023-09-25T18:30:37.476Z,100783.72
2023-09-25T18:33:10.640Z,100790.25
2023-09-25T18:35:37.974Z,100787.94
2023-09-25T18:38:05.436Z,100784.72
2023-09-25T18:40:35.679Z,100785.81
2023-09-25T18:43:05.091Z,100779.75
2023-09-25T18:45:32.186Z,100788.91
2023-09-25T18:47:59.481Z,100788.34
2023-09-25T18:50:26.293Z,100788.69
2023-09-25T18:52:53.566Z,100789.91
2023-09-25T18:55:20.280Z,100786.69
2023-09-25T18:57:47.682Z,100791.38
2023-09-25T19:00:14.639Z,100791.72
2023-09-25T19:02:42.847Z,100791.25
2023-09-25T19:05:10.645Z,100795.81
2023-09-25T19:07:37.309Z,100791.66
2023-09-25T19:10:06.307Z,100795.41
2023-09-25T19:12:33.667Z,100792.06
2023-09-25T19:15:00.552Z,100798.56
2023-09-25T19:17:28.182Z,100792.53
2023-09-25T19:19:54.880Z,100794.47
2023-09-25T19:22:21.970Z,100787.41
2023-09-25T19:24:49.542Z,100793.81
2023-09-25T19:27:16.171Z,100789.63
2023-09-25T19:29:43.780Z,100791.63
2023-09-25T19:32:10.987Z,100795.41
2023-09-25T19:34:37.849Z,100806.34
2023-09-25T19:37:05.083Z,100805.66
2023-09-25T19:39:32.631Z,100808.59
2023-09-25T19:41:59.291Z,100815.81
2023-09-25T19:44:26.331Z,100814.22
2023-09-25T19:46:53.967Z,100815.22
2023-09-25T19:49:20.841Z,100815.34
2023-09-25T19:51:50.149Z,100816.44
2023-09-25T19:54:17.661Z,100820.19
2023-09-25T19:56:44.297Z,100823.13
2023-09-25T19:59:11.886Z,100832.19
2023-09-25T20:01:39.227Z,100824.38
2023-09-25T20:04:06.264Z,100821.56
2023-09-25T20:06:33.639Z,100824.38
2023-09-25T20:09:00.432Z,100824.84
2023-09-25T20:11:27.523Z,100824.97
2023-09-25T20:13:56.160Z,100828.91
2023-09-25T20:16:24.514Z,100827.13
2023-09-25T20:18:51.284Z,100829.78
2023-09-25T20:21:18.932Z,100827.06
2023-09-25T20:23:45.620Z,100838.75
2023-09-25T20:26:13.133Z,100836.97
2023-09-25T20:28:40.471Z,100834.38
